createdAt,value
2022-07-27T00:05:00.257Z,0
2022-07-27T00:10:00.286Z,0
2022-07-27T00:15:00.087Z,0
2022-07-27T00:20:00.177Z,0
2022-07-27T00:25:00.207Z,0
2022-07-27T00:30:00.252Z,0
2022-07-27T00:35:00.301Z,0
2022-07-27T00:40:00.253Z,0
2022-07-27T00:44:59.807Z,0
2022-07-27T00:50:00.157Z,0
2022-07-27T00:55:00.270Z,0
2022-07-27T01:00:00.140Z,0
2022-07-27T01:05:00.190Z,0
2022-07-27T01:10:00.147Z,0
2022-07-27T01:15:00.156Z,0
2022-07-27T01:20:00.195Z,0
2022-07-27T01:25:00.227Z,0
2022-07-27T01:29:59.831Z,0
2022-07-27T01:35:00.212Z,0
2022-07-27T01:39:59.979Z,0
2022-07-27T01:45:00.113Z,0
2022-07-27T01:49:59.988Z,0
2022-07-27T01:55:00.057Z,0
2022-07-27T02:00:00.060Z,0
2022-07-27T02:04:59.933Z,0
2022-07-27T02:09:59.959Z,0
2022-07-27T02:14:59.846Z,0
2022-07-27T02:19:59.906Z,0
2022-07-27T02:24:59.872Z,0
2022-07-27T02:29:59.789Z,0
2022-07-27T02:34:59.907Z,0
2022-07-27T02:39:59.808Z,0
2022-07-27T02:44:59.883Z,0
2022-07-27T02:50:00.169Z,0
2022-07-27T02:54:59.880Z,0
2022-07-27T02:59:59.794Z,0
2022-07-27T03:04:59.977Z,0
2022-07-27T03:09:59.801Z,0
2022-07-27T03:14:59.805Z,0
2022-07-27T03:19:59.962Z,0
2022-07-27T03:25:00.020Z,0
2022-07-27T03:29:59.930Z,0
2022-07-27T03:34:59.962Z,0
2022-07-27T03:39:59.917Z,0
2022-07-27T03:44:59.957Z,0
2022-07-27T03:49:59.904Z,0
2022-07-27T03:55:00.003Z,0
2022-07-27T03:59:59.930Z,0.3
2022-07-27T04:04:59.749Z,0.8
2022-07-27T04:09:59.741Z,1.7
2022-07-27T04:14:59.908Z,3
2022-07-27T04:19:59.748Z,4.6
2022-07-27T04:24:59.994Z,6
2022-07-27T04:29:59.781Z,6.9
2022-07-27T04:34:59.866Z,7.7
2022-07-27T04:39:59.917Z,8.8
2022-07-27T04:44:59.806Z,10.9
2022-07-27T04:49:59.914Z,13.8
2022-07-27T04:54:59.706Z,16.7
2022-07-27T04:59:59.987Z,18.9
2022-07-27T05:04:59.783Z,21.7
2022-07-27T05:09:59.702Z,24.3
2022-07-27T05:14:59.811Z,28.2
2022-07-27T05:19:59.738Z,32
2022-07-27T05:24:59.879Z,33.8
2022-07-27T05:29:59.924Z,36.5
2022-07-27T05:34:59.812Z,38
2022-07-27T05:39:59.768Z,41.3
2022-07-27T05:45:00.094Z,44.8
2022-07-27T05:49:59.888Z,51.1
2022-07-27T05:54:59.936Z,57.3
2022-07-27T06:00:00.081Z,63.2
2022-07-27T06:04:59.820Z,66.3
2022-07-27T06:09:59.962Z,70.3
2022-07-27T06:14:59.743Z,68.2
2022-07-27T06:20:00.161Z,59.7
2022-07-27T06:24:59.707Z,58.9
2022-07-27T06:29:59.607Z,60.2
2022-07-27T06:34:59.722Z,54.3
2022-07-27T06:39:59.882Z,46.7
2022-07-27T06:44:59.594Z,47.4
2022-07-27T06:49:59.724Z,46
2022-07-27T06:54:59.832Z,47.6
2022-07-27T06:59:59.835Z,49
2022-07-27T07:04:59.978Z,52.1
2022-07-27T07:09:59.956Z,51.3
2022-07-27T07:14:59.908Z,53.1
2022-07-27T07:19:59.773Z,54.5
2022-07-27T07:25:02.851Z,53.8
2022-07-27T07:29:59.810Z,52.2
2022-07-27T07:35:00.170Z,52.6
2022-07-27T07:40:08.201Z,54
2022-07-27T07:44:59.611Z,53.3
2022-07-27T07:49:59.730Z,53.4
2022-07-27T07:54:59.770Z,53.7
2022-07-27T07:59:59.825Z,54.4
2022-07-27T08:04:59.635Z,54
2022-07-27T08:09:59.808Z,51.7
2022-07-27T08:14:59.496Z,53.9
2022-07-27T08:19:59.714Z,55.1
2022-07-27T08:25:00.315Z,55.7
2022-07-27T08:29:59.849Z,56.2
2022-07-27T08:34:59.564Z,57.6
2022-07-27T08:40:39.072Z,52.7
2022-07-27T08:45:00.207Z,62.2
2022-07-27T08:49:59.679Z,66.8
2022-07-27T08:54:59.655Z,78.5
2022-07-27T08:59:59.815Z,94.6
2022-07-27T09:05:00.237Z,110
2022-07-27T09:09:59.822Z,127.1
2022-07-27T09:15:04.120Z,123.5
2022-07-27T09:20:00.647Z,79.9
2022-07-27T09:24:59.742Z,103.2
2022-07-27T09:29:59.782Z,127
2022-07-27T09:35:13.086Z,136.8
2022-07-27T09:39:59.761Z,122.4
2022-07-27T09:44:59.700Z,149.8
2022-07-27T09:49:59.427Z,165.4
2022-07-27T09:54:59.512Z,179.7
2022-07-27T10:00:07.636Z,190
2022-07-27T10:04:59.682Z,201.2
2022-07-27T10:09:59.565Z,210.4
2022-07-27T10:14:59.561Z,219.2
2022-07-27T10:19:59.565Z,225.9
2022-07-27T10:24:59.396Z,232.9
2022-07-27T10:29:59.520Z,218.4
2022-07-27T10:34:59.513Z,237.4
2022-07-27T10:39:59.539Z,273.8
2022-07-27T10:44:59.739Z,276.1
2022-07-27T10:49:59.428Z,214.9
2022-07-27T10:55:00.158Z,271.7
2022-07-27T11:00:09.292Z,317
2022-07-27T11:05:02.541Z,294.1
2022-07-27T11:10:04.061Z,390.9
2022-07-27T11:14:59.366Z,450.3
2022-07-27T11:19:59.470Z,269
2022-07-27T11:24:59.555Z,243.7
2022-07-27T11:29:59.493Z,429.7
2022-07-27T11:35:12.382Z,530.9
2022-07-27T11:40:04.197Z,563.1
2022-07-27T11:44:59.751Z,623.1
2022-07-27T11:49:59.603Z,670.4
2022-07-27T11:54:59.331Z,699.6
2022-07-27T11:59:59.401Z,736.4
2022-07-27T12:05:02.806Z,793
2022-07-27T12:09:59.705Z,830.6
2022-07-27T12:14:59.663Z,860.5
2022-07-27T12:19:59.603Z,897.8
2022-07-27T12:24:59.283Z,897.3
2022-07-27T12:30:01.328Z,981.4
2022-07-27T12:34:59.536Z,1013.5
2022-07-27T12:39:59.572Z,1031.8
2022-07-27T12:44:59.465Z,1079.8
2022-07-27T12:50:05.245Z,552.8
2022-07-27T12:54:59.554Z,327.3
2022-07-27T12:59:59.521Z,234
2022-07-27T13:04:59.472Z,510.1
2022-07-27T13:10:02.338Z,959.8
2022-07-27T13:14:59.526Z,1115.3
2022-07-27T13:19:59.228Z,1179.2
2022-07-27T13:24:59.573Z,1203.3
2022-07-27T13:29:59.432Z,1202.2
2022-07-27T13:34:59.476Z,1195.1
2022-07-27T13:39:59.385Z,1196.9
2022-07-27T13:45:07.920Z,1185.6
2022-07-27T13:49:59.543Z,1186.4
2022-07-27T13:54:59.585Z,1185.3
2022-07-27T13:59:59.286Z,1174.2
2022-07-27T14:04:59.416Z,1143.9
2022-07-27T14:09:59.231Z,1046.6
2022-07-27T14:14:59.196Z,1089.9
2022-07-27T14:19:59.247Z,1093.3
2022-07-27T14:24:59.336Z,1096.9
2022-07-27T14:29:59.524Z,1080.8
2022-07-27T14:34:59.556Z,1063.6
2022-07-27T14:39:59.414Z,1057.4
2022-07-27T14:44:59.401Z,1048.8
2022-07-27T14:49:59.435Z,1037
2022-07-27T14:54:59.526Z,1028.7
2022-07-27T14:59:59.676Z,994.2
2022-07-27T15:04:59.526Z,538
2022-07-27T15:09:59.666Z,718.8
2022-07-27T15:14:59.452Z,821.2
2022-07-27T15:19:59.410Z,851
2022-07-27T15:24:59.380Z,799
2022-07-27T15:29:59.357Z,811.8
2022-07-27T15:34:59.470Z,760.7
2022-07-27T15:39:59.303Z,784.3
2022-07-27T15:45:00.764Z,753.3
2022-07-27T15:49:59.358Z,682.1
2022-07-27T15:54:59.362Z,597.7
2022-07-27T15:59:59.353Z,488.8
2022-07-27T16:04:59.310Z,367
2022-07-27T16:09:59.274Z,297
2022-07-27T16:14:59.328Z,257.6
2022-07-27T16:19:59.170Z,225.8
2022-07-27T16:24:59.173Z,184.5
2022-07-27T16:29:59.404Z,167.2
2022-07-27T16:34:59.281Z,144.5
2022-07-27T16:39:59.565Z,120.1
2022-07-27T16:44:59.350Z,100.3
2022-07-27T16:49:59.316Z,86.5
2022-07-27T16:54:59.288Z,74.5
2022-07-27T16:59:59.294Z,66.9
2022-07-27T17:04:59.261Z,58.8
2022-07-27T17:09:59.326Z,54
2022-07-27T17:14:59.248Z,49.4
2022-07-27T17:19:59.228Z,46.1
2022-07-27T17:24:59.186Z,44.5
2022-07-27T17:29:59.301Z,46.8
2022-07-27T17:34:59.286Z,46.1
2022-07-27T17:39:59.292Z,41.9
2022-07-27T17:44:59.272Z,38.4
2022-07-27T17:50:00.392Z,36.2
2022-07-27T17:55:00.557Z,34.3
2022-07-27T18:00:00.721Z,32.7
2022-07-27T18:05:00.418Z,32
2022-07-27T18:10:00.599Z,31.2
2022-07-27T18:15:00.390Z,30.4
2022-07-27T18:20:00.293Z,28.8
2022-07-27T18:25:00.289Z,26.8
2022-07-27T18:30:00.293Z,26.7
2022-07-27T18:35:00.309Z,26.7
2022-07-27T18:40:00.232Z,25.5
2022-07-27T18:45:00.139Z,23.6
2022-07-27T18:50:00.428Z,21.2
2022-07-27T18:55:00.301Z,19
2022-07-27T19:00:00.338Z,17
2022-07-27T19:05:00.343Z,14.6
2022-07-27T19:10:00.331Z,11.7
2022-07-27T19:15:00.286Z,8.9
2022-07-27T19:20:00.292Z,6.3
2022-07-27T19:25:00.246Z,4.5
2022-07-27T19:30:00.484Z,3
2022-07-27T19:35:00.121Z,1.8
2022-07-27T19:40:14.411Z,1.1
2022-07-27T19:45:00.317Z,0.4
2022-07-27T19:50:00.539Z,0.1
2022-07-27T19:55:00.376Z,0
2022-07-27T20:00:00.438Z,0
2022-07-27T20:05:00.419Z,0
2022-07-27T20:10:00.462Z,0
2022-07-27T20:15:00.431Z,0
2022-07-27T20:20:00.646Z,0
2022-07-27T20:25:00.085Z,0
2022-07-27T20:30:00.433Z,0
2022-07-27T20:35:00.453Z,0
2022-07-27T20:40:00.237Z,0
2022-07-27T20:45:00.485Z,0
2022-07-27T20:50:00.325Z,0
2022-07-27T20:55:00.047Z,0
2022-07-27T21:00:00.095Z,0
2022-07-27T21:05:00.147Z,0
2022-07-27T21:10:00.179Z,0
2022-07-27T21:15:00.067Z,0
2022-07-27T21:20:00.183Z,0
2022-07-27T21:25:00.185Z,0
2022-07-27T21:30:00.316Z,0
2022-07-27T21:35:00.233Z,0
2022-07-27T21:40:00.286Z,0
2022-07-27T21:45:00.336Z,0
2022-07-27T21:50:00.506Z,0
2022-07-27T21:55:00.032Z,0
2022-07-27T21:59:59.991Z,0
2022-07-27T22:05:00.512Z,0
2022-07-27T22:10:00.348Z,0
2022-07-27T22:15:00.340Z,0
2022-07-27T22:20:00.642Z,0
2022-07-27T22:25:00.232Z,0
2022-07-27T22:30:00.835Z,0
2022-07-27T22:35:00.379Z,0
2022-07-27T22:40:00.306Z,0
2022-07-27T22:45:00.127Z,0
2022-07-27T22:50:00.337Z,0
2022-07-27T22:55:00.298Z,0
2022-07-27T23:00:00.474Z,0
2022-07-27T23:05:00.430Z,0
2022-07-27T23:10:00.665Z,0
2022-07-27T23:15:00.283Z,0
2022-07-27T23:19:59.963Z,0
2022-07-27T23:25:00.261Z,0
2022-07-27T23:30:00.320Z,0
2022-07-27T23:35:00.133Z,0
2022-07-27T23:40:00.294Z,0
2022-07-27T23:45:00.156Z,0
2022-07-27T23:50:00.031Z,0
2022-07-27T23:54:59.992Z,0
